FYLZ/LUD METAR and TAF weather

Enter ICAO airport designator
Station Type Date Time Source
FYLZ METAR 2020/02/21 00:00 UTC NOAA

FYLZ 210000Z AUTO 18015KT //// // ////// 21/16 Q1010


Station Type Date Time Source
FYLZ Decoded METAR 2020/02/21 00:00 UTC NOAA

Luderitz / Diaz Point, Namibia (FYLZ) 26-41S 015-15E
Feb 20, 2020 - 07:00 PM EST / 2020.02.21 0000 UTC
Wind: from the S (180 degrees) at 17 MPH (15 KT):0
Temperature: 69 F (21 C)
Dew Point: 60 F (16 C)
Relative Humidity: 73%
Pressure (altimeter): 29.83 in. Hg (1010 hPa)
ob: FYLZ 210000Z AUTO 18015KT //// // ////// 21/16 Q1010
cycle: 0

Station Type Date Time Source
FYLZ TAF 2014/11/15 15:19 UTC NOAA

TAF FYLZ 151400Z 1515/1524 18015G28KT CAVOK
BECMG 1518/1520 16020KT

Example: see airport list